Detall de PIREP

Printer-friendly versionPDF version

[2013/08/17 14:55:00]
Flight IATA:CT1001
Pilot Number:012
Company ICAO:CAT
Aircraft Type:F28/A
PAX:85
Departing Airport: LEMH
Destination Airport: LFKJ
Alternate Airport:LIEO
Online: VATSIM
Route:MEROS B16 LUMAS UT16 TINOT
Flight Level:F240
No Slew and time accel
No pause
Crash detect
Detect pilot in Cockpit between each 30 and 45 minutes
14:55 Zero fuel Weight: 55378 Lbs, Fuel Weight: 9025 Lbs
14:55 VATSIM:LEMH 171430Z 05010KT 9999 FEW018 29/18 Q1017
14:55 VATSIM:LFKJ 171430Z 21010KT 9999 FEW046 FEW053CB 30/21 Q1016 NOSIG
14:55 VOICE CATALONIAN / MEDITERRANEAN ODYSSEY
14:58 Parking Brakes off
15:10 Take-off
15:10 Take off Weight: 63999 Lbs
15:10 Wind: 049º @ 010 Knots Heading: 012º
15:10 POS N39º 51´ 53´´ E004º 13´ 09´´
15:10 Gear Up: 161 Knots
15:24 TOC
15:24 Fuel Weight: 7051 Lb
15:25 Wind:268º@016 Knots Heading: 007º Ground Speed: 305 Knots Altitude 24333 ft
15:40 Wind:213º@016 Knots Heading: 035º Ground Speed: 442 Knots Altitude 24048 ft
15:55 Wind:252º@010 Knots Heading: 112º Ground Speed: 436 Knots Altitude 24051 ft
15:56 TOD
15:56 Fuel Weight: 4496 Lb
16:04 Flaps:1 at 209 Knots
16:10 Wind:190º@004 Knots Heading: 102º Ground Speed: 194 Knots Altitude 5016 ft
16:11 Flaps:2 at 173 Knots
16:12 Flaps:3 at 160 Knots
16:12 Gear Down: 158 Knots
16:12 Flaps:4 at 136 Knots
16:12 Flaps:5 at 135 Knots
16:16 TouchDown:Rate -225 ft/min Speed: 102 Knots
16:16 VATSIM:LFKJ 171600Z 20007KT 9999 FEW053 30/19 Q1015 NOSIG
16:16 Land
16:16 Wind:188º@007 Knots
16:16 Heading: 204º
16:16 Flight Duration: 01:06
16:16 Landing Weight: 59191 Lbs
16:16 POS N41º 55´ 21´´ E008º 48´ 05´´
16:19 Parking brakes on
16:19 Block to Block Duration: 01:21
16:19 Final Fuel: 3708 Lbls
16:19 Spent Fuel: 5317 Lbls
16:19 Flight Length: 373 NM
16:19 TOD Land Length: 83 NM

Exportar CSV

Powered by Drupal - Modified by Danger4k